sensor_id;sensor_type;location;lat;lon;timestamp;temperature;humidity
22623;DHT22;11478;51.094;7.030;2022-12-20T00:04:42;6.90;99.90
22623;DHT22;11478;51.094;7.030;2022-12-20T00:07:08;6.90;99.90
22623;DHT22;11478;51.094;7.030;2022-12-20T00:09:35;6.80;99.90
22623;DHT22;11478;51.094;7.030;2022-12-20T00:12:00;6.80;99.90
22623;DHT22;11478;51.094;7.030;2022-12-20T00:14:26;6.70;99.90
22623;DHT22;11478;51.094;7.030;2022-12-20T00:16:52;6.70;99.90
22623;DHT22;11478;51.094;7.030;2022-12-20T00:19:18;6.70;99.90
22623;DHT22;11478;51.094;7.030;2022-12-20T00:21:44;6.70;99.90
22623;DHT22;11478;51.094;7.030;2022-12-20T00:24:10;6.70;99.90
22623;DHT22;11478;51.094;7.030;2022-12-20T00:26:36;6.70;99.90
22623;DHT22;11478;51.094;7.030;2022-12-20T00:29:06;6.70;99.90
22623;DHT22;11478;51.094;7.030;2022-12-20T00:31:32;6.80;99.90
22623;DHT22;11478;51.094;7.030;2022-12-20T00:33:59;6.90;99.90
22623;DHT22;11478;51.094;7.030;2022-12-20T00:36:26;6.90;99.90
22623;DHT22;11478;51.094;7.030;2022-12-20T00:38:54;6.90;99.90
22623;DHT22;11478;51.094;7.030;2022-12-20T00:41:34;7.00;99.90
22623;DHT22;11478;51.094;7.030;2022-12-20T00:44:03;7.00;99.90
22623;DHT22;11478;51.094;7.030;2022-12-20T00:46:31;7.00;99.90
22623;DHT22;11478;51.094;7.030;2022-12-20T00:48:57;7.00;99.90
22623;DHT22;11478;51.094;7.030;2022-12-20T00:51:27;7.00;99.90
22623;DHT22;11478;51.094;7.030;2022-12-20T00:53:55;7.00;99.90
22623;DHT22;11478;51.094;7.030;2022-12-20T00:56:22;7.00;99.90
22623;DHT22;11478;51.094;7.030;2022-12-20T00:58:48;7.00;99.90
22623;DHT22;11478;51.094;7.030;2022-12-20T01:01:28;7.00;99.90
22623;DHT22;11478;51.094;7.030;2022-12-20T01:03:54;7.00;99.90
22623;DHT22;11478;51.094;7.030;2022-12-20T01:06:28;7.00;99.90
22623;DHT22;11478;51.094;7.030;2022-12-20T01:08:55;7.00;99.90
22623;DHT22;11478;51.094;7.030;2022-12-20T01:11:23;7.10;99.90
22623;DHT22;11478;51.094;7.030;2022-12-20T01:13:52;7.10;99.90
22623;DHT22;11478;51.094;7.030;2022-12-20T01:16:23;7.10;99.90
22623;DHT22;11478;51.094;7.030;2022-12-20T01:18:50;7.00;99.90
22623;DHT22;11478;51.094;7.030;2022-12-20T01:21:18;7.00;99.90
22623;DHT22;11478;51.094;7.030;2022-12-20T01:23:46;7.00;99.90
22623;DHT22;11478;51.094;7.030;2022-12-20T01:26:15;7.00;99.90
22623;DHT22;11478;51.094;7.030;2022-12-20T01:28:43;7.00;99.90
22623;DHT22;11478;51.094;7.030;2022-12-20T01:31:13;6.90;99.90
22623;DHT22;11478;51.094;7.030;2022-12-20T01:33:41;7.00;99.90
22623;DHT22;11478;51.094;7.030;2022-12-20T01:36:11;7.00;99.90
22623;DHT22;11478;51.094;7.030;2022-12-20T01:38:37;6.90;99.90
22623;DHT22;11478;51.094;7.030;2022-12-20T01:41:03;6.90;99.90
22623;DHT22;11478;51.094;7.030;2022-12-20T01:46:20;6.90;99.90
22623;DHT22;11478;51.094;7.030;2022-12-20T01:51:27;7.00;99.90
22623;DHT22;11478;51.094;7.030;2022-12-20T01:54:07;7.10;99.90
22623;DHT22;11478;51.094;7.030;2022-12-20T01:56:35;7.20;99.90
22623;DHT22;11478;51.094;7.030;2022-12-20T01:59:02;7.40;99.90
22623;DHT22;11478;51.094;7.030;2022-12-20T02:01:28;7.60;99.90
22623;DHT22;11478;51.094;7.030;2022-12-20T02:03:54;7.60;99.90
22623;DHT22;11478;51.094;7.030;2022-12-20T02:06:23;7.60;99.90
22623;DHT22;11478;51.094;7.030;2022-12-20T02:08:53;7.50;99.90
22623;DHT22;11478;51.094;7.030;2022-12-20T02:19:54;7.70;99.90
22623;DHT22;11478;51.094;7.030;2022-12-20T02:31:14;8.10;99.90
22623;DHT22;11478;51.094;7.030;2022-12-20T02:33:48;8.10;99.90
22623;DHT22;11478;51.094;7.030;2022-12-20T02:36:16;8.00;99.90
22623;DHT22;11478;51.094;7.030;2022-12-20T02:38:47;8.00;99.90
22623;DHT22;11478;51.094;7.030;2022-12-20T02:41:23;7.90;99.90
22623;DHT22;11478;51.094;7.030;2022-12-20T02:44:04;7.90;99.90
22623;DHT22;11478;51.094;7.030;2022-12-20T02:46:51;8.00;99.90
22623;DHT22;11478;51.094;7.030;2022-12-20T02:49:23;8.00;99.90
22623;DHT22;11478;51.094;7.030;2022-12-20T02:51:52;8.00;99.90
22623;DHT22;11478;51.094;7.030;2022-12-20T02:54:20;7.90;99.90
22623;DHT22;11478;51.094;7.030;2022-12-20T02:57:00;7.90;99.90
22623;DHT22;11478;51.094;7.030;2022-12-20T03:00:01;8.10;99.90
22623;DHT22;11478;51.094;7.030;2022-12-20T03:02:32;8.10;99.90
22623;DHT22;11478;51.094;7.030;2022-12-20T03:05:20;8.00;99.90
22623;DHT22;11478;51.094;7.030;2022-12-20T03:07:46;7.80;99.90
22623;DHT22;11478;51.094;7.030;2022-12-20T03:13:36;7.60;99.90
22623;DHT22;11478;51.094;7.030;2022-12-20T03:16:01;7.50;99.90
22623;DHT22;11478;51.094;7.030;2022-12-20T03:18:27;7.40;99.90
22623;DHT22;11478;51.094;7.030;2022-12-20T03:20:53;7.20;99.90
22623;DHT22;11478;51.094;7.030;2022-12-20T03:23:19;7.20;99.90
22623;DHT22;11478;51.094;7.030;2022-12-20T03:25:46;7.10;99.90
22623;DHT22;11478;51.094;7.030;2022-12-20T03:28:15;7.20;99.90
22623;DHT22;11478;51.094;7.030;2022-12-20T03:30:41;7.20;99.90
22623;DHT22;11478;51.094;7.030;2022-12-20T03:33:10;7.20;99.90
22623;DHT22;11478;51.094;7.030;2022-12-20T03:35:37;7.20;99.90
22623;DHT22;11478;51.094;7.030;2022-12-20T03:38:03;7.20;99.90
22623;DHT22;11478;51.094;7.030;2022-12-20T03:40:29;7.20;99.90
22623;DHT22;11478;51.094;7.030;2022-12-20T03:42:55;7.20;99.90
22623;DHT22;11478;51.094;7.030;2022-12-20T03:45:22;7.20;99.90
22623;DHT22;11478;51.094;7.030;2022-12-20T03:47:48;7.30;99.90
22623;DHT22;11478;51.094;7.030;2022-12-20T03:50:13;7.20;99.90
22623;DHT22;11478;51.094;7.030;2022-12-20T03:52:39;7.20;99.90
22623;DHT22;11478;51.094;7.030;2022-12-20T03:55:07;7.30;99.90
22623;DHT22;11478;51.094;7.030;2022-12-20T03:57:34;7.20;99.90
22623;DHT22;11478;51.094;7.030;2022-12-20T04:00:03;7.20;99.90
22623;DHT22;11478;51.094;7.030;2022-12-20T04:02:29;7.20;99.90
22623;DHT22;11478;51.094;7.030;2022-12-20T04:04:56;7.20;99.90
22623;DHT22;11478;51.094;7.030;2022-12-20T04:07:22;7.10;99.90
22623;DHT22;11478;51.094;7.030;2022-12-20T04:09:53;7.10;99.90
22623;DHT22;11478;51.094;7.030;2022-12-20T04:12:18;7.00;99.90
22623;DHT22;11478;51.094;7.030;2022-12-20T04:14:48;7.00;99.90
22623;DHT22;11478;51.094;7.030;2022-12-20T04:17:14;7.10;99.90
22623;DHT22;11478;51.094;7.030;2022-12-20T04:19:40;7.20;99.90
22623;DHT22;11478;51.094;7.030;2022-12-20T04:22:06;7.20;99.90
22623;DHT22;11478;51.094;7.030;2022-12-20T04:24:32;7.40;99.90
22623;DHT22;11478;51.094;7.030;2022-12-20T04:26:58;7.50;99.90
22623;DHT22;11478;51.094;7.030;2022-12-20T04:29:25;7.50;99.90
22623;DHT22;11478;51.094;7.030;2022-12-20T04:31:50;7.50;99.90
22623;DHT22;11478;51.094;7.030;2022-12-20T04:34:16;7.40;99.90
22623;DHT22;11478;51.094;7.030;2022-12-20T04:36:45;7.40;99.90
22623;DHT22;11478;51.094;7.030;2022-12-20T04:39:32;7.50;99.90
22623;DHT22;11478;51.094;7.030;2022-12-20T04:41:58;7.40;99.90
22623;DHT22;11478;51.094;7.030;2022-12-20T04:44:24;7.40;99.90
22623;DHT22;11478;51.094;7.030;2022-12-20T04:46:50;7.30;99.90
22623;DHT22;11478;51.094;7.030;2022-12-20T04:49:20;7.40;99.90
22623;DHT22;11478;51.094;7.030;2022-12-20T04:51:53;7.40;99.90
22623;DHT22;11478;51.094;7.030;2022-12-20T04:54:19;7.30;99.90
22623;DHT22;11478;51.094;7.030;2022-12-20T04:56:45;7.20;99.90
22623;DHT22;11478;51.094;7.030;2022-12-20T04:59:11;7.20;99.90
22623;DHT22;11478;51.094;7.030;2022-12-20T05:01:37;7.10;99.90
22623;DHT22;11478;51.094;7.030;2022-12-20T05:04:04;7.20;99.90
22623;DHT22;11478;51.094;7.030;2022-12-20T05:06:30;7.30;99.90
22623;DHT22;11478;51.094;7.030;2022-12-20T05:09:00;7.30;99.90
22623;DHT22;11478;51.094;7.030;2022-12-20T05:11:29;7.40;99.90
22623;DHT22;11478;51.094;7.030;2022-12-20T05:13:56;7.30;99.90
22623;DHT22;11478;51.094;7.030;2022-12-20T05:16:21;7.40;99.90
22623;DHT22;11478;51.094;7.030;2022-12-20T05:18:51;7.40;99.90
22623;DHT22;11478;51.094;7.030;2022-12-20T05:21:17;7.50;99.90
22623;DHT22;11478;51.094;7.030;2022-12-20T05:24:04;7.60;99.90
22623;DHT22;11478;51.094;7.030;2022-12-20T05:26:48;7.70;99.90
22623;DHT22;11478;51.094;7.030;2022-12-20T05:29:14;7.80;99.90
22623;DHT22;11478;51.094;7.030;2022-12-20T05:31:47;7.80;99.90
22623;DHT22;11478;51.094;7.030;2022-12-20T05:34:13;7.80;99.90
22623;DHT22;11478;51.094;7.030;2022-12-20T05:36:41;7.80;99.90
22623;DHT22;11478;51.094;7.030;2022-12-20T05:39:07;7.80;99.90
22623;DHT22;11478;51.094;7.030;2022-12-20T05:41:33;7.90;99.90
22623;DHT22;11478;51.094;7.030;2022-12-20T05:43:59;7.90;99.90
22623;DHT22;11478;51.094;7.030;2022-12-20T05:46:25;7.90;99.90
22623;DHT22;11478;51.094;7.030;2022-12-20T05:48:53;7.90;99.90
22623;DHT22;11478;51.094;7.030;2022-12-20T05:51:19;7.90;99.90
22623;DHT22;11478;51.094;7.030;2022-12-20T05:53:45;7.90;99.90
22623;DHT22;11478;51.094;7.030;2022-12-20T05:56:11;7.90;99.90
22623;DHT22;11478;51.094;7.030;2022-12-20T05:58:37;8.00;99.90
22623;DHT22;11478;51.094;7.030;2022-12-20T06:01:05;7.90;99.90
22623;DHT22;11478;51.094;7.030;2022-12-20T06:03:32;8.00;99.90
22623;DHT22;11478;51.094;7.030;2022-12-20T06:05:58;8.00;99.90
22623;DHT22;11478;51.094;7.030;2022-12-20T06:08:24;8.00;99.90
22623;DHT22;11478;51.094;7.030;2022-12-20T06:10:50;8.00;99.90
22623;DHT22;11478;51.094;7.030;2022-12-20T06:13:18;8.10;99.90
22623;DHT22;11478;51.094;7.030;2022-12-20T06:15:44;8.10;99.90
22623;DHT22;11478;51.094;7.030;2022-12-20T06:18:10;8.20;99.90
22623;DHT22;11478;51.094;7.030;2022-12-20T06:20:36;8.30;99.90
22623;DHT22;11478;51.094;7.030;2022-12-20T06:23:29;8.40;99.90
22623;DHT22;11478;51.094;7.030;2022-12-20T06:25:55;8.50;99.90
22623;DHT22;11478;51.094;7.030;2022-12-20T06:28:23;8.60;99.90
22623;DHT22;11478;51.094;7.030;2022-12-20T06:30:56;8.60;99.90
22623;DHT22;11478;51.094;7.030;2022-12-20T06:33:27;8.60;99.90
22623;DHT22;11478;51.094;7.030;2022-12-20T06:35:56;8.70;99.90
22623;DHT22;11478;51.094;7.030;2022-12-20T06:38:21;8.70;99.90
22623;DHT22;11478;51.094;7.030;2022-12-20T06:40:48;8.80;99.90
22623;DHT22;11478;51.094;7.030;2022-12-20T06:43:14;8.80;99.90
22623;DHT22;11478;51.094;7.030;2022-12-20T06:45:40;8.80;99.90
22623;DHT22;11478;51.094;7.030;2022-12-20T06:48:09;8.80;99.90
22623;DHT22;11478;51.094;7.030;2022-12-20T06:50:43;8.80;99.90
22623;DHT22;11478;51.094;7.030;2022-12-20T06:53:08;8.70;99.90
22623;DHT22;11478;51.094;7.030;2022-12-20T06:55:34;8.70;99.90
22623;DHT22;11478;51.094;7.030;2022-12-20T06:58:00;8.60;99.90
22623;DHT22;11478;51.094;7.030;2022-12-20T07:00:29;8.60;99.90
22623;DHT22;11478;51.094;7.030;2022-12-20T07:02:55;8.50;99.90
22623;DHT22;11478;51.094;7.030;2022-12-20T07:05:21;8.40;99.90
22623;DHT22;11478;51.094;7.030;2022-12-20T07:07:47;8.40;99.90
22623;DHT22;11478;51.094;7.030;2022-12-20T07:10:13;8.50;99.90
22623;DHT22;11478;51.094;7.030;2022-12-20T07:12:39;8.50;99.90
22623;DHT22;11478;51.094;7.030;2022-12-20T07:15:09;8.50;99.90
22623;DHT22;11478;51.094;7.030;2022-12-20T07:17:35;8.60;99.90
22623;DHT22;11478;51.094;7.030;2022-12-20T07:20:01;8.50;99.90
22623;DHT22;11478;51.094;7.030;2022-12-20T07:22:26;8.40;99.90
22623;DHT22;11478;51.094;7.030;2022-12-20T07:24:55;8.40;99.90
22623;DHT22;11478;51.094;7.030;2022-12-20T07:27:23;8.30;99.90
22623;DHT22;11478;51.094;7.030;2022-12-20T07:29:50;8.30;99.90
22623;DHT22;11478;51.094;7.030;2022-12-20T07:32:15;8.20;99.90
22623;DHT22;11478;51.094;7.030;2022-12-20T07:34:44;8.20;99.90
22623;DHT22;11478;51.094;7.030;2022-12-20T07:37:10;8.30;99.90
22623;DHT22;11478;51.094;7.030;2022-12-20T07:39:36;8.20;99.90
22623;DHT22;11478;51.094;7.030;2022-12-20T07:42:02;8.20;99.90
22623;DHT22;11478;51.094;7.030;2022-12-20T07:44:31;8.30;99.90
22623;DHT22;11478;51.094;7.030;2022-12-20T07:46:57;8.30;99.90
22623;DHT22;11478;51.094;7.030;2022-12-20T07:49:34;8.30;99.90
22623;DHT22;11478;51.094;7.030;2022-12-20T07:52:01;8.30;99.90
22623;DHT22;11478;51.094;7.030;2022-12-20T07:54:41;8.30;99.90
22623;DHT22;11478;51.094;7.030;2022-12-20T07:57:28;8.30;99.90
22623;DHT22;11478;51.094;7.030;2022-12-20T07:59:58;8.20;99.90
22623;DHT22;11478;51.094;7.030;2022-12-20T08:02:38;8.10;99.90
22623;DHT22;11478;51.094;7.030;2022-12-20T08:05:07;8.00;99.90
22623;DHT22;11478;51.094;7.030;2022-12-20T08:07:39;8.00;99.90
22623;DHT22;11478;51.094;7.030;2022-12-20T08:10:13;8.00;99.90
22623;DHT22;11478;51.094;7.030;2022-12-20T08:12:43;8.00;99.90
22623;DHT22;11478;51.094;7.030;2022-12-20T08:15:10;8.00;99.90
22623;DHT22;11478;51.094;7.030;2022-12-20T08:17:39;8.00;99.90
22623;DHT22;11478;51.094;7.030;2022-12-20T08:20:06;7.90;99.90
22623;DHT22;11478;51.094;7.030;2022-12-20T08:22:34;7.90;99.90
22623;DHT22;11478;51.094;7.030;2022-12-20T08:25:00;7.90;99.90
22623;DHT22;11478;51.094;7.030;2022-12-20T08:27:31;7.90;99.90
22623;DHT22;11478;51.094;7.030;2022-12-20T08:29:58;7.80;99.90
22623;DHT22;11478;51.094;7.030;2022-12-20T08:32:24;7.80;99.90
22623;DHT22;11478;51.094;7.030;2022-12-20T08:34:51;7.80;99.90
22623;DHT22;11478;51.094;7.030;2022-12-20T08:37:31;7.90;99.90
22623;DHT22;11478;51.094;7.030;2022-12-20T08:39:57;7.90;99.90
22623;DHT22;11478;51.094;7.030;2022-12-20T08:42:23;7.90;99.90
22623;DHT22;11478;51.094;7.030;2022-12-20T08:44:49;8.00;99.90
22623;DHT22;11478;51.094;7.030;2022-12-20T08:47:16;8.10;99.90
22623;DHT22;11478;51.094;7.030;2022-12-20T08:49:44;8.30;99.90
22623;DHT22;11478;51.094;7.030;2022-12-20T08:52:10;8.40;99.90
22623;DHT22;11478;51.094;7.030;2022-12-20T08:54:36;8.40;99.90
22623;DHT22;11478;51.094;7.030;2022-12-20T08:57:03;8.50;99.90
22623;DHT22;11478;51.094;7.030;2022-12-20T08:59:29;8.40;99.90
22623;DHT22;11478;51.094;7.030;2022-12-20T09:01:57;8.50;99.90
22623;DHT22;11478;51.094;7.030;2022-12-20T09:04:23;8.50;99.90
22623;DHT22;11478;51.094;7.030;2022-12-20T09:06:49;8.50;99.90
22623;DHT22;11478;51.094;7.030;2022-12-20T09:09:18;8.60;99.90
22623;DHT22;11478;51.094;7.030;2022-12-20T09:11:44;8.70;99.90
22623;DHT22;11478;51.094;7.030;2022-12-20T09:14:09;8.70;99.90
22623;DHT22;11478;51.094;7.030;2022-12-20T09:16:36;8.70;99.90
22623;DHT22;11478;51.094;7.030;2022-12-20T09:19:03;8.70;99.90
22623;DHT22;11478;51.094;7.030;2022-12-20T09:21:30;8.60;99.90
22623;DHT22;11478;51.094;7.030;2022-12-20T09:23:56;8.50;99.90
22623;DHT22;11478;51.094;7.030;2022-12-20T09:26:38;8.50;99.90
22623;DHT22;11478;51.094;7.030;2022-12-20T09:29:07;8.60;99.90
22623;DHT22;11478;51.094;7.030;2022-12-20T09:31:33;8.70;99.90
22623;DHT22;11478;51.094;7.030;2022-12-20T09:33:59;8.70;99.90
22623;DHT22;11478;51.094;7.030;2022-12-20T09:36:28;8.70;99.90
22623;DHT22;11478;51.094;7.030;2022-12-20T09:38:55;8.70;99.90
22623;DHT22;11478;51.094;7.030;2022-12-20T09:41:33;8.70;99.90
22623;DHT22;11478;51.094;7.030;2022-12-20T09:44:19;8.80;99.90
22623;DHT22;11478;51.094;7.030;2022-12-20T09:46:55;8.80;99.90
22623;DHT22;11478;51.094;7.030;2022-12-20T09:49:28;8.80;99.90
22623;DHT22;11478;51.094;7.030;2022-12-20T10:00:23;8.90;99.90
22623;DHT22;11478;51.094;7.030;2022-12-20T10:02:49;9.00;99.90
22623;DHT22;11478;51.094;7.030;2022-12-20T10:11:19;9.10;99.90
22623;DHT22;11478;51.094;7.030;2022-12-20T10:16:57;9.20;99.90
22623;DHT22;11478;51.094;7.030;2022-12-20T10:23:00;9.10;99.90
22623;DHT22;11478;51.094;7.030;2022-12-20T10:25:31;9.10;99.90
22623;DHT22;11478;51.094;7.030;2022-12-20T10:28:00;9.00;99.90
22623;DHT22;11478;51.094;7.030;2022-12-20T10:30:30;9.00;99.90
22623;DHT22;11478;51.094;7.030;2022-12-20T10:32:57;8.90;99.90
22623;DHT22;11478;51.094;7.030;2022-12-20T10:35:40;8.80;99.90
22623;DHT22;11478;51.094;7.030;2022-12-20T10:38:10;8.80;99.90
22623;DHT22;11478;51.094;7.030;2022-12-20T10:40:44;8.70;99.90
22623;DHT22;11478;51.094;7.030;2022-12-20T10:43:18;8.70;99.90
22623;DHT22;11478;51.094;7.030;2022-12-20T10:46:01;8.80;99.90
22623;DHT22;11478;51.094;7.030;2022-12-20T10:48:36;8.90;99.90
22623;DHT22;11478;51.094;7.030;2022-12-20T10:54:51;9.00;99.90
22623;DHT22;11478;51.094;7.030;2022-12-20T11:00:00;9.10;99.90
22623;DHT22;11478;51.094;7.030;2022-12-20T11:02:36;9.20;99.90
22623;DHT22;11478;51.094;7.030;2022-12-20T11:05:20;9.30;99.90
22623;DHT22;11478;51.094;7.030;2022-12-20T11:10:27;9.30;99.90
22623;DHT22;11478;51.094;7.030;2022-12-20T11:12:59;9.40;99.90
22623;DHT22;11478;51.094;7.030;2022-12-20T11:15:30;9.40;99.90
22623;DHT22;11478;51.094;7.030;2022-12-20T11:18:37;9.50;99.90
22623;DHT22;11478;51.094;7.030;2022-12-20T11:23:43;9.80;99.90
22623;DHT22;11478;51.094;7.030;2022-12-20T11:26:41;9.90;99.90
22623;DHT22;11478;51.094;7.030;2022-12-20T11:31:55;10.00;99.90
22623;DHT22;11478;51.094;7.030;2022-12-20T11:38:06;10.00;99.90
22623;DHT22;11478;51.094;7.030;2022-12-20T11:43:55;10.00;99.90
22623;DHT22;11478;51.094;7.030;2022-12-20T11:46:50;10.00;99.90
22623;DHT22;11478;51.094;7.030;2022-12-20T11:55:19;10.10;99.90
22623;DHT22;11478;51.094;7.030;2022-12-20T12:00:22;10.10;99.90
22623;DHT22;11478;51.094;7.030;2022-12-20T12:05:52;10.20;99.90
22623;DHT22;11478;51.094;7.030;2022-12-20T12:13:39;10.30;99.90
22623;DHT22;11478;51.094;7.030;2022-12-20T12:16:07;10.30;99.90
22623;DHT22;11478;51.094;7.030;2022-12-20T12:18:36;10.20;99.90
22623;DHT22;11478;51.094;7.030;2022-12-20T12:24:22;10.10;99.90
22623;DHT22;11478;51.094;7.030;2022-12-20T12:26:49;10.10;99.90
22623;DHT22;11478;51.094;7.030;2022-12-20T12:29:20;10.00;99.90
22623;DHT22;11478;51.094;7.030;2022-12-20T12:35:09;9.90;99.90
22623;DHT22;11478;51.094;7.030;2022-12-20T12:40:59;10.00;99.90
22623;DHT22;11478;51.094;7.030;2022-12-20T12:46:30;9.90;99.90
22623;DHT22;11478;51.094;7.030;2022-12-20T12:49:00;9.80;99.90
22623;DHT22;11478;51.094;7.030;2022-12-20T12:51:32;9.70;99.90
22623;DHT22;11478;51.094;7.030;2022-12-20T13:11:36;9.20;99.90
22623;DHT22;11478;51.094;7.030;2022-12-20T13:16:54;9.10;99.90
22623;DHT22;11478;51.094;7.030;2022-12-20T13:19:50;9.00;99.90
22623;DHT22;11478;51.094;7.030;2022-12-20T13:22:18;8.90;99.90
22623;DHT22;11478;51.094;7.030;2022-12-20T13:24:54;8.90;99.90
22623;DHT22;11478;51.094;7.030;2022-12-20T13:27:34;8.90;99.90
22623;DHT22;11478;51.094;7.030;2022-12-20T13:30:21;8.90;99.90
22623;DHT22;11478;51.094;7.030;2022-12-20T13:38:32;8.80;99.90
22623;DHT22;11478;51.094;7.030;2022-12-20T13:40:59;8.70;99.90
22623;DHT22;11478;51.094;7.030;2022-12-20T13:43:33;8.70;99.90
22623;DHT22;11478;51.094;7.030;2022-12-20T13:46:13;8.70;99.90
22623;DHT22;11478;51.094;7.030;2022-12-20T13:51:19;8.70;99.90
22623;DHT22;11478;51.094;7.030;2022-12-20T13:54:16;8.70;99.90
22623;DHT22;11478;51.094;7.030;2022-12-20T13:56:48;8.70;99.90
22623;DHT22;11478;51.094;7.030;2022-12-20T14:02:20;8.60;99.90
22623;DHT22;11478;51.094;7.030;2022-12-20T14:07:50;8.60;99.90
22623;DHT22;11478;51.094;7.030;2022-12-20T14:10:23;8.50;99.90
22623;DHT22;11478;51.094;7.030;2022-12-20T14:12:52;8.50;99.90
22623;DHT22;11478;51.094;7.030;2022-12-20T14:15:24;8.50;99.90
22623;DHT22;11478;51.094;7.030;2022-12-20T14:17:53;8.50;99.90
22623;DHT22;11478;51.094;7.030;2022-12-20T14:20:23;8.50;99.90
22623;DHT22;11478;51.094;7.030;2022-12-20T14:23:04;8.40;99.90
22623;DHT22;11478;51.094;7.030;2022-12-20T14:25:42;8.40;99.90
22623;DHT22;11478;51.094;7.030;2022-12-20T14:28:34;8.40;99.90
22623;DHT22;11478;51.094;7.030;2022-12-20T14:31:01;8.40;99.90
22623;DHT22;11478;51.094;7.030;2022-12-20T14:33:38;8.40;99.90
22623;DHT22;11478;51.094;7.030;2022-12-20T14:36:23;8.40;99.90
22623;DHT22;11478;51.094;7.030;2022-12-20T14:38:50;8.40;99.90
22623;DHT22;11478;51.094;7.030;2022-12-20T14:41:38;8.40;99.90
22623;DHT22;11478;51.094;7.030;2022-12-20T14:46:58;8.30;99.90
22623;DHT22;11478;51.094;7.030;2022-12-20T14:49:33;8.20;99.90
22623;DHT22;11478;51.094;7.030;2022-12-20T14:52:23;8.20;99.90
22623;DHT22;11478;51.094;7.030;2022-12-20T14:57:43;8.20;99.90
22623;DHT22;11478;51.094;7.030;2022-12-20T15:00:25;8.20;99.90
22623;DHT22;11478;51.094;7.030;2022-12-20T15:03:02;8.20;99.90
22623;DHT22;11478;51.094;7.030;2022-12-20T15:05:41;8.20;99.90
22623;DHT22;11478;51.094;7.030;2022-12-20T15:13:39;8.20;99.90
22623;DHT22;11478;51.094;7.030;2022-12-20T15:16:27;8.10;99.90
22623;DHT22;11478;51.094;7.030;2022-12-20T15:19:01;8.10;99.90
22623;DHT22;11478;51.094;7.030;2022-12-20T15:21:38;8.10;99.90
22623;DHT22;11478;51.094;7.030;2022-12-20T15:24:18;8.10;99.90
22623;DHT22;11478;51.094;7.030;2022-12-20T15:26:50;8.10;99.90
22623;DHT22;11478;51.094;7.030;2022-12-20T15:29:20;8.10;99.90
22623;DHT22;11478;51.094;7.030;2022-12-20T15:31:50;8.10;99.90
22623;DHT22;11478;51.094;7.030;2022-12-20T15:34:34;8.10;99.90
22623;DHT22;11478;51.094;7.030;2022-12-20T15:37:00;8.10;99.90
22623;DHT22;11478;51.094;7.030;2022-12-20T15:39:27;8.00;99.90
22623;DHT22;11478;51.094;7.030;2022-12-20T15:41:54;8.00;99.90
22623;DHT22;11478;51.094;7.030;2022-12-20T15:44:26;8.00;99.90
22623;DHT22;11478;51.094;7.030;2022-12-20T15:46:52;8.00;99.90
22623;DHT22;11478;51.094;7.030;2022-12-20T15:49:24;7.90;99.90
22623;DHT22;11478;51.094;7.030;2022-12-20T15:51:54;7.90;99.90
22623;DHT22;11478;51.094;7.030;2022-12-20T15:56:55;7.80;99.90
22623;DHT22;11478;51.094;7.030;2022-12-20T15:59:22;7.80;99.90
22623;DHT22;11478;51.094;7.030;2022-12-20T16:01:52;7.80;99.90
22623;DHT22;11478;51.094;7.030;2022-12-20T16:04:20;7.80;99.90
22623;DHT22;11478;51.094;7.030;2022-12-20T16:06:48;7.80;99.90
22623;DHT22;11478;51.094;7.030;2022-12-20T16:09:15;7.80;99.90
22623;DHT22;11478;51.094;7.030;2022-12-20T16:11:42;7.80;99.90
22623;DHT22;11478;51.094;7.030;2022-12-20T16:14:16;7.80;99.90
22623;DHT22;11478;51.094;7.030;2022-12-20T16:16:43;7.70;99.90
22623;DHT22;11478;51.094;7.030;2022-12-20T16:19:10;7.70;99.90
22623;DHT22;11478;51.094;7.030;2022-12-20T16:21:58;7.80;99.90
22623;DHT22;11478;51.094;7.030;2022-12-20T16:24:24;7.80;99.90
22623;DHT22;11478;51.094;7.030;2022-12-20T16:26:57;7.80;99.90
22623;DHT22;11478;51.094;7.030;2022-12-20T16:29:22;7.80;99.90
22623;DHT22;11478;51.094;7.030;2022-12-20T16:31:48;7.80;99.90
22623;DHT22;11478;51.094;7.030;2022-12-20T16:34:16;7.80;99.90
22623;DHT22;11478;51.094;7.030;2022-12-20T16:36:43;7.80;99.90
22623;DHT22;11478;51.094;7.030;2022-12-20T16:39:13;7.90;99.90
22623;DHT22;11478;51.094;7.030;2022-12-20T16:41:39;7.90;99.90
22623;DHT22;11478;51.094;7.030;2022-12-20T16:44:15;7.90;99.90
22623;DHT22;11478;51.094;7.030;2022-12-20T16:46:41;7.90;99.90
22623;DHT22;11478;51.094;7.030;2022-12-20T16:49:10;7.90;99.90
22623;DHT22;11478;51.094;7.030;2022-12-20T16:51:43;7.90;99.90
22623;DHT22;11478;51.094;7.030;2022-12-20T16:54:26;7.90;99.90
22623;DHT22;11478;51.094;7.030;2022-12-20T16:56:52;7.90;99.90
22623;DHT22;11478;51.094;7.030;2022-12-20T17:02:41;7.80;99.90
22623;DHT22;11478;51.094;7.030;2022-12-20T17:05:36;7.80;99.90
22623;DHT22;11478;51.094;7.030;2022-12-20T17:08:06;7.80;99.90
22623;DHT22;11478;51.094;7.030;2022-12-20T17:10:32;7.70;99.90
22623;DHT22;11478;51.094;7.030;2022-12-20T17:12:58;7.70;99.90
22623;DHT22;11478;51.094;7.030;2022-12-20T17:15:26;7.80;99.90
22623;DHT22;11478;51.094;7.030;2022-12-20T17:18:05;7.80;99.90
22623;DHT22;11478;51.094;7.030;2022-12-20T17:20:31;7.80;99.90
22623;DHT22;11478;51.094;7.030;2022-12-20T17:23:04;7.90;99.90
22623;DHT22;11478;51.094;7.030;2022-12-20T17:25:34;7.90;99.90
22623;DHT22;11478;51.094;7.030;2022-12-20T17:28:00;7.90;99.90
22623;DHT22;11478;51.094;7.030;2022-12-20T17:30:27;7.90;99.90
22623;DHT22;11478;51.094;7.030;2022-12-20T17:32:53;7.90;99.90
22623;DHT22;11478;51.094;7.030;2022-12-20T17:35:31;7.90;99.90
22623;DHT22;11478;51.094;7.030;2022-12-20T17:37:57;7.90;99.90
22623;DHT22;11478;51.094;7.030;2022-12-20T17:40:28;7.90;99.90
22623;DHT22;11478;51.094;7.030;2022-12-20T17:42:54;8.00;99.90
22623;DHT22;11478;51.094;7.030;2022-12-20T17:45:25;8.00;99.90
22623;DHT22;11478;51.094;7.030;2022-12-20T17:47:52;7.90;99.90
22623;DHT22;11478;51.094;7.030;2022-12-20T17:50:18;7.90;99.90
22623;DHT22;11478;51.094;7.030;2022-12-20T17:52:45;7.90;99.90
22623;DHT22;11478;51.094;7.030;2022-12-20T17:55:26;7.90;99.90
22623;DHT22;11478;51.094;7.030;2022-12-20T17:57:54;7.90;99.90
22623;DHT22;11478;51.094;7.030;2022-12-20T18:04:05;7.90;99.90
22623;DHT22;11478;51.094;7.030;2022-12-20T18:06:36;7.90;99.90
22623;DHT22;11478;51.094;7.030;2022-12-20T18:09:04;7.90;99.90
22623;DHT22;11478;51.094;7.030;2022-12-20T18:11:38;8.00;99.90
22623;DHT22;11478;51.094;7.030;2022-12-20T18:14:04;7.90;99.90
22623;DHT22;11478;51.094;7.030;2022-12-20T18:16:34;7.90;99.90
22623;DHT22;11478;51.094;7.030;2022-12-20T18:19:00;7.90;99.90
22623;DHT22;11478;51.094;7.030;2022-12-20T18:21:28;7.90;99.90
22623;DHT22;11478;51.094;7.030;2022-12-20T18:23:55;7.90;99.90
22623;DHT22;11478;51.094;7.030;2022-12-20T18:26:29;7.80;99.90
22623;DHT22;11478;51.094;7.030;2022-12-20T18:28:57;7.90;99.90
22623;DHT22;11478;51.094;7.030;2022-12-20T18:31:28;7.90;99.90
22623;DHT22;11478;51.094;7.030;2022-12-20T18:33:58;7.90;99.90
22623;DHT22;11478;51.094;7.030;2022-12-20T18:36:28;7.90;99.90
22623;DHT22;11478;51.094;7.030;2022-12-20T18:38:57;7.90;99.90
22623;DHT22;11478;51.094;7.030;2022-12-20T18:41:26;7.90;99.90